Time;durP1;ratioP1;P1;durP2;ratioP2;P2;SDS_P1;SDS_P2;PMS_P1;PMS_P2;Temp;Humidity;BMP_temperature;BMP_pressure;BME280_temperature;BME280_humidity;BME280_pressure;Samples;Min_cycle;Max_cycle;Signal;HPM_P1;HPM_P2
2024/03/21 00:00:11;;;;;;;17.38;8.55;;;12.10;62.60;;;;;;5013302;28;20390;-74
2024/03/21 00:02:41;;;;;;;17.67;8.27;;;12.00;64.40;;;;;;5013014;28;20876;-73
2024/03/21 00:05:11;;;;;;;20.17;9.00;;;12.10;63.00;;;;;;5013780;28;20470;-74
2024/03/21 00:07:36;;;;;;;20.23;8.50;;;12.20;62.90;;;;;;5012264;28;20569;-73
2024/03/21 00:10:03;;;;;;;15.73;8.50;;;12.10;63.50;;;;;;5011334;28;20496;-75
2024/03/21 00:12:29;;;;;;;20.23;9.32;;;12.10;63.20;;;;;;5011440;28;20454;-74
2024/03/21 00:14:55;;;;;;;18.02;8.40;;;11.70;65.50;;;;;;5010804;28;20411;-72
2024/03/21 00:17:21;;;;;;;19.60;9.30;;;11.50;69.40;;;;;;5011580;28;20972;-74
2024/03/21 00:19:46;;;;;;;15.23;8.68;;;11.30;72.20;;;;;;4994517;28;20763;-73
2024/03/21 00:22:12;;;;;;;16.83;8.40;;;11.30;73.70;;;;;;5011386;28;20942;-73
2024/03/21 00:24:38;;;;;;;19.07;8.60;;;11.20;74.40;;;;;;5010851;28;20464;-72
2024/03/21 00:27:04;;;;;;;16.52;9.45;;;11.10;75.50;;;;;;5014670;28;20385;-73
2024/03/21 00:29:31;;;;;;;13.40;7.72;;;11.00;76.80;;;;;;5012053;28;20385;-73
2024/03/21 00:31:56;;;;;;;12.77;8.00;;;11.00;78.40;;;;;;5011099;28;20381;-74
2024/03/21 00:34:22;;;;;;;14.90;8.50;;;11.00;78.80;;;;;;5011039;28;20392;-74
2024/03/21 00:36:47;;;;;;;16.25;8.80;;;10.90;79.10;;;;;;5011400;28;20380;-73
2024/03/21 00:39:18;;;;;;;13.18;8.43;;;11.00;78.70;;;;;;5010812;28;20396;-74
2024/03/21 00:41:44;;;;;;;12.88;8.07;;;10.90;77.80;;;;;;5019496;28;20381;-74
2024/03/21 00:44:09;;;;;;;17.53;8.53;;;11.00;77.50;;;;;;5010732;28;20453;-74
2024/03/21 00:46:35;;;;;;;16.30;8.90;;;11.00;76.90;;;;;;5011110;28;20459;-74
2024/03/21 00:49:00;;;;;;;13.50;8.20;;;11.00;77.50;;;;;;5010824;28;20392;-73
2024/03/21 00:51:26;;;;;;;12.60;8.70;;;11.00;77.30;;;;;;5010494;28;20872;-74
2024/03/21 00:53:51;;;;;;;13.27;7.83;;;11.10;76.20;;;;;;5010905;28;20764;-73
2024/03/21 00:56:17;;;;;;;11.90;7.60;;;11.10;75.80;;;;;;5011246;28;20856;-74
2024/03/21 00:58:43;;;;;;;13.00;7.60;;;11.10;75.90;;;;;;5011276;28;20419;-74
2024/03/21 01:01:09;;;;;;;11.20;7.85;;;11.20;74.70;;;;;;5012846;28;20381;-73
2024/03/21 01:03:34;;;;;;;13.37;7.77;;;11.20;74.80;;;;;;5015550;28;20783;-73
2024/03/21 01:06:01;;;;;;;14.60;7.93;;;11.10;75.10;;;;;;5016149;28;20464;-74
2024/03/21 01:08:27;;;;;;;15.85;8.25;;;11.10;75.20;;;;;;5015562;28;20472;-73
2024/03/21 01:10:53;;;;;;;16.35;8.40;;;11.10;75.20;;;;;;5013847;28;20393;-76
2024/03/21 01:13:19;;;;;;;16.50;8.55;;;11.10;75.50;;;;;;5014338;28;20518;-74
2024/03/21 01:15:45;;;;;;;20.93;8.87;;;11.10;75.70;;;;;;5014081;28;20767;-74
2024/03/21 01:18:10;;;;;;;15.20;7.40;;;11.10;76.00;;;;;;5013814;28;20405;-74
2024/03/21 01:20:40;;;;;;;21.33;9.15;;;11.40;73.20;;;;;;5014101;28;20460;-74
2024/03/21 01:23:05;;;;;;;19.98;9.95;;;12.00;65.50;;;;;;5014191;28;20388;-74
2024/03/21 01:25:32;;;;;;;18.40;9.80;;;12.00;64.60;;;;;;4996233;28;20409;-73
2024/03/21 01:27:58;;;;;;;22.77;10.13;;;12.00;64.40;;;;;;4996290;28;20393;-74
2024/03/21 01:30:24;;;;;;;19.63;9.60;;;12.00;64.90;;;;;;5013640;28;20404;-74
2024/03/21 01:32:49;;;;;;;18.45;10.48;;;11.70;67.60;;;;;;5013929;28;20448;-74
2024/03/21 01:35:15;;;;;;;18.17;9.27;;;11.60;70.90;;;;;;5013821;28;20396;-74
2024/03/21 01:37:41;;;;;;;19.07;10.10;;;11.60;69.80;;;;;;5014064;28;20417;-75
2024/03/21 01:40:09;;;;;;;20.40;10.00;;;11.70;69.30;;;;;;5014082;28;20387;-74
2024/03/21 01:42:37;;;;;;;20.45;9.60;;;11.50;70.80;;;;;;4997178;28;20404;-74
2024/03/21 01:45:05;;;;;;;23.25;10.40;;;11.30;73.10;;;;;;5029202;28;20416;-73
2024/03/21 01:47:31;;;;;;;18.77;9.65;;;11.20;74.60;;;;;;5034297;28;20894;-74
2024/03/21 01:49:58;;;;;;;14.30;9.40;;;11.10;75.90;;;;;;5027948;28;20393;-74
2024/03/21 01:52:24;;;;;;;15.00;9.50;;;11.10;77.20;;;;;;5013358;28;20448;-75
2024/03/21 01:54:50;;;;;;;16.15;9.80;;;11.10;77.70;;;;;;5013437;28;20436;-73
2024/03/21 01:57:16;;;;;;;17.90;9.02;;;11.10;77.90;;;;;;5013284;28;20411;-74
2024/03/21 01:59:42;;;;;;;18.92;10.20;;;11.20;77.90;;;;;;5013048;28;20381;-74
2024/03/21 02:02:08;;;;;;;18.92;10.00;;;11.30;76.20;;;;;;5013483;28;20790;-74
2024/03/21 02:04:34;;;;;;;17.50;9.65;;;11.80;70.50;;;;;;5012934;28;20393;-75
2024/03/21 02:06:59;;;;;;;29.88;10.60;;;11.80;67.80;;;;;;5013505;28;20409;-74
2024/03/21 02:09:27;;;;;;;19.83;9.75;;;11.90;68.40;;;;;;5012584;28;20830;-73
2024/03/21 02:11:53;;;;;;;19.60;9.57;;;11.90;66.10;;;;;;5013398;28;20415;-74
2024/03/21 02:14:22;;;;;;;17.98;9.80;;;12.00;65.90;;;;;;5012500;28;20389;-74
2024/03/21 02:16:47;;;;;;;23.48;11.70;;;12.10;64.30;;;;;;5013048;28;20408;-74
2024/03/21 02:19:13;;;;;;;20.60;10.82;;;12.10;65.00;;;;;;5012871;28;20405;-74
2024/03/21 02:24:23;;;;;;;21.48;12.25;;;12.10;65.00;;;;;;5013244;28;20404;-75
2024/03/21 02:26:48;;;;;;;20.83;10.67;;;12.00;66.10;;;;;;5013493;28;20879;-76
2024/03/21 02:29:14;;;;;;;19.63;10.70;;;12.00;66.90;;;;;;5013102;28;20393;-74
2024/03/21 02:31:40;;;;;;;18.13;10.02;;;11.80;69.60;;;;;;5012783;28;20449;-75
2024/03/21 02:34:05;;;;;;;21.63;11.40;;;11.60;72.80;;;;;;5016528;28;20393;-76
2024/03/21 02:36:31;;;;;;;21.50;11.40;;;11.50;75.00;;;;;;5017295;28;20397;-76
2024/03/21 02:38:57;;;;;;;19.30;11.47;;;11.50;76.40;;;;;;5014578;28;20478;-75
2024/03/21 02:41:23;;;;;;;14.87;10.77;;;11.40;77.00;;;;;;5012058;28;20418;-75
2024/03/21 02:43:49;;;;;;;17.98;10.88;;;11.40;77.60;;;;;;5012470;28;20381;-73
2024/03/21 02:46:14;;;;;;;20.88;11.00;;;11.70;74.10;;;;;;5012706;28;20392;-75
2024/03/21 02:48:40;;;;;;;24.57;12.03;;;11.80;70.50;;;;;;5012719;28;20451;-76
2024/03/21 02:51:05;;;;;;;21.87;11.63;;;11.70;71.20;;;;;;5012387;28;20867;-76
2024/03/21 02:53:31;;;;;;;21.33;12.20;;;11.50;73.70;;;;;;5012432;28;20381;-76
2024/03/21 02:55:56;;;;;;;19.33;13.10;;;11.80;71.50;;;;;;5012696;28;20805;-75
2024/03/21 02:58:22;;;;;;;21.30;13.90;;;11.70;70.10;;;;;;5012422;28;20922;-75
2024/03/21 03:00:47;;;;;;;30.37;16.00;;;11.70;72.30;;;;;;5011571;28;20389;-76
2024/03/21 03:03:13;;;;;;;30.07;15.20;;;11.90;70.30;;;;;;5011469;28;20392;-75
2024/03/21 03:05:39;;;;;;;24.30;15.50;;;12.00;68.50;;;;;;5011719;28;20385;-76
2024/03/21 03:08:05;;;;;;;28.50;16.50;;;12.10;68.00;;;;;;5011572;28;20396;-76
2024/03/21 03:10:31;;;;;;;34.45;17.65;;;12.00;68.80;;;;;;5011155;28;20381;-74
2024/03/21 03:12:56;;;;;;;29.83;18.70;;;11.80;71.90;;;;;;5011902;28;20389;-75
2024/03/21 03:15:22;;;;;;;33.33;18.25;;;11.80;73.30;;;;;;5011511;28;20385;-76
2024/03/21 03:17:47;;;;;;;30.30;19.10;;;11.80;74.30;;;;;;5011605;28;20452;-75
2024/03/21 03:20:13;;;;;;;31.50;17.80;;;11.70;74.80;;;;;;5011389;28;20450;-76
2024/03/21 03:22:38;;;;;;;34.20;20.53;;;11.70;75.00;;;;;;5011536;28;20435;-75
2024/03/21 03:25:04;;;;;;;33.10;20.07;;;11.70;77.00;;;;;;5010478;28;20478;-75
2024/03/21 03:27:30;;;;;;;34.28;21.13;;;11.50;78.10;;;;;;5012072;28;20733;-75
2024/03/21 03:29:55;;;;;;;34.25;22.00;;;11.30;83.30;;;;;;5012300;28;20399;-75
2024/03/21 03:32:24;;;;;;;36.30;21.83;;;11.10;84.40;;;;;;5011909;28;20904;-75
2024/03/21 03:37:50;;;;;;;47.65;24.30;;;10.90;91.80;;;;;;4931753;29;20449;-76
2024/03/21 03:40:16;;;;;;;32.80;21.00;;;11.40;88.00;;;;;;4994252;28;20889;-74
2024/03/21 03:42:41;;;;;;;38.17;22.40;;;11.40;86.40;;;;;;5011112;28;20432;-75
2024/03/21 03:45:07;;;;;;;32.08;21.10;;;11.30;86.60;;;;;;4993454;28;20381;-75
2024/03/21 03:47:33;;;;;;;31.35;21.83;;;11.10;88.90;;;;;;5011097;28;20400;-75
2024/03/21 03:49:59;;;;;;;38.70;22.37;;;11.00;91.10;;;;;;5010796;28;20388;-74
2024/03/21 03:52:24;;;;;;;44.78;26.50;;;11.10;93.10;;;;;;5011014;28;20457;-75
2024/03/21 03:54:50;;;;;;;44.50;27.33;;;11.50;88.50;;;;;;5011017;28;20431;-74
2024/03/21 03:57:15;;;;;;;39.50;24.10;;;11.70;85.20;;;;;;5011171;28;20503;-75
2024/03/21 03:59:41;;;;;;;37.27;23.87;;;11.60;85.60;;;;;;5010962;28;20397;-76
2024/03/21 04:02:06;;;;;;;36.87;22.67;;;11.50;87.80;;;;;;5010812;28;20449;-75
2024/03/21 04:04:32;;;;;;;42.25;24.40;;;11.40;89.40;;;;;;5011271;28;20385;-77
2024/03/21 04:06:57;;;;;;;40.60;25.88;;;11.50;88.00;;;;;;4993516;28;20396;-75
2024/03/21 04:09:23;;;;;;;51.63;29.67;;;11.80;84.20;;;;;;4992874;28;20385;-74
2024/03/21 04:11:48;;;;;;;52.30;26.00;;;11.70;84.50;;;;;;5010858;28;20392;-76
2024/03/21 04:14:14;;;;;;;47.17;26.10;;;11.50;86.90;;;;;;5010647;28;20423;-75
2024/03/21 04:16:40;;;;;;;40.53;25.60;;;11.50;90.40;;;;;;5011007;28;20399;-75
2024/03/21 04:19:05;;;;;;;45.55;27.58;;;11.90;83.10;;;;;;5011486;28;20412;-76
2024/03/21 04:21:31;;;;;;;47.33;29.73;;;12.00;80.30;;;;;;5011498;28;20708;-75
2024/03/21 04:23:56;;;;;;;58.72;31.85;;;12.10;80.10;;;;;;5011146;28;20417;-75
2024/03/21 04:26:22;;;;;;;60.47;33.47;;;12.20;78.90;;;;;;5010615;28;20420;-76
2024/03/21 04:28:47;;;;;;;72.63;37.60;;;12.10;79.60;;;;;;5010975;28;20499;-76
2024/03/21 04:31:13;;;;;;;69.00;37.43;;;12.10;81.10;;;;;;5010447;28;20393;-76
2024/03/21 04:33:38;;;;;;;75.77;40.13;;;12.10;81.70;;;;;;5011071;28;20381;-76
2024/03/21 04:36:04;;;;;;;76.15;41.40;;;12.10;81.80;;;;;;5011442;28;20392;-77
2024/03/21 04:38:30;;;;;;;69.93;39.78;;;12.10;82.50;;;;;;5014630;28;20503;-76
2024/03/21 04:40:55;;;;;;;67.10;38.88;;;12.10;82.70;;;;;;5014500;28;20465;-76
2024/03/21 04:43:21;;;;;;;65.63;38.45;;;11.90;85.70;;;;;;5014416;28;20857;-74
2024/03/21 04:45:46;;;;;;;71.70;38.97;;;11.80;86.30;;;;;;5014551;28;20400;-76
2024/03/21 04:48:12;;;;;;;74.47;37.83;;;11.80;87.00;;;;;;5014768;28;20395;-76
2024/03/21 04:50:38;;;;;;;64.07;36.77;;;11.80;87.80;;;;;;5016263;28;20385;-76
2024/03/21 04:53:03;;;;;;;68.82;37.00;;;12.00;83.00;;;;;;5023709;28;20397;-76
2024/03/21 04:55:29;;;;;;;74.70;39.70;;;12.00;82.10;;;;;;5022283;28;20420;-76
2024/03/21 04:57:54;;;;;;;71.28;39.88;;;11.80;85.50;;;;;;5022453;28;20404;-75
2024/03/21 05:00:20;;;;;;;85.22;42.72;;;11.70;86.20;;;;;;5022862;28;20377;-75
2024/03/21 05:02:45;;;;;;;74.60;40.95;;;11.80;84.00;;;;;;5018155;28;20472;-77
2024/03/21 05:05:11;;;;;;;74.90;39.50;;;11.70;84.70;;;;;;5019478;28;20384;-75
2024/03/21 05:07:36;;;;;;;78.43;41.23;;;11.60;86.40;;;;;;5021862;28;20397;-77
2024/03/21 05:10:04;;;;;;;83.10;40.90;;;11.40;88.40;;;;;;5022557;28;20400;-75
2024/03/21 05:12:29;;;;;;;78.70;41.53;;;11.10;92.10;;;;;;5014458;28;20443;-74
2024/03/21 05:14:55;;;;;;;82.22;41.40;;;11.20;92.60;;;;;;5017857;28;20397;-76
2024/03/21 05:17:20;;;;;;;76.22;43.03;;;10.90;94.00;;;;;;5014205;28;20564;-76
2024/03/21 05:19:47;;;;;;;83.13;43.60;;;10.70;98.00;;;;;;4996147;28;20412;-75
2024/03/21 05:22:13;;;;;;;76.07;42.20;;;10.80;99.90;;;;;;5018514;28;20400;-75
2024/03/21 05:24:39;;;;;;;82.95;43.08;;;11.10;95.70;;;;;;5018326;28;20464;-76
2024/03/21 05:27:06;;;;;;;85.30;44.88;;;11.20;94.20;;;;;;5017364;28;20977;-76
2024/03/21 05:29:32;;;;;;;84.15;42.78;;;11.10;94.20;;;;;;5013847;28;20396;-73
2024/03/21 05:31:57;;;;;;;85.07;42.88;;;11.10;94.60;;;;;;5013548;28;20384;-70
2024/03/21 05:34:23;;;;;;;87.25;42.22;;;11.00;95.10;;;;;;5013269;28;20396;-72
2024/03/21 05:36:49;;;;;;;90.78;44.35;;;11.00;95.30;;;;;;5013754;28;20403;-71
2024/03/21 05:39:14;;;;;;;81.30;43.17;;;11.00;96.00;;;;;;5013361;28;20448;-72
2024/03/21 05:41:40;;;;;;;85.63;41.23;;;11.10;95.40;;;;;;5013519;28;20389;-72
2024/03/21 05:44:05;;;;;;;77.20;42.67;;;11.10;94.30;;;;;;5013742;28;20892;-75
2024/03/21 05:46:31;;;;;;;75.57;40.50;;;11.20;93.30;;;;;;5014878;28;20373;-75
2024/03/21 05:48:57;;;;;;;79.27;40.80;;;11.30;91.20;;;;;;5012786;28;20393;-72
2024/03/21 05:51:24;;;;;;;72.53;39.55;;;11.40;89.50;;;;;;5012789;28;20384;-72
2024/03/21 05:53:49;;;;;;;80.27;39.47;;;11.40;87.80;;;;;;5013546;28;20381;-72
2024/03/21 05:56:15;;;;;;;73.80;39.10;;;11.40;87.40;;;;;;5013662;28;20809;-71
2024/03/21 05:58:41;;;;;;;77.43;40.08;;;11.40;87.20;;;;;;5011244;28;20405;-71
2024/03/21 06:03:36;;;;;;;80.20;40.03;;;11.40;86.20;;;;;;5013115;28;20547;-72
2024/03/21 06:06:02;;;;;;;74.15;38.60;;;11.40;86.00;;;;;;5013361;28;20472;-73
2024/03/21 06:08:27;;;;;;;74.00;40.03;;;11.50;85.40;;;;;;5013623;28;20454;-72
2024/03/21 06:10:53;;;;;;;74.70;40.57;;;11.50;84.50;;;;;;5013551;28;20389;-72
2024/03/21 06:13:20;;;;;;;78.53;38.90;;;11.50;84.90;;;;;;5013022;28;20397;-71
2024/03/21 06:15:45;;;;;;;79.93;38.92;;;11.50;84.70;;;;;;5012842;28;20397;-71
2024/03/21 06:18:11;;;;;;;77.37;37.80;;;11.50;85.00;;;;;;5012937;28;20492;-72
2024/03/21 06:20:37;;;;;;;79.07;39.27;;;11.50;84.80;;;;;;5012320;28;20879;-71
2024/03/21 06:23:02;;;;;;;76.97;39.22;;;11.50;84.90;;;;;;5013295;28;20389;-72
2024/03/21 06:25:28;;;;;;;72.68;37.60;;;11.50;85.30;;;;;;5012383;28;20912;-71
2024/03/21 06:27:54;;;;;;;70.85;37.25;;;11.60;83.90;;;;;;5013135;28;20397;-71
2024/03/21 06:30:20;;;;;;;69.85;35.42;;;11.60;83.40;;;;;;5012302;28;20396;-72
2024/03/21 06:32:45;;;;;;;70.18;37.90;;;11.60;83.00;;;;;;5012638;28;20396;-72
2024/03/21 06:35:11;;;;;;;73.75;34.85;;;11.60;83.20;;;;;;4996146;28;20467;-74
2024/03/21 06:37:37;;;;;;;68.93;37.08;;;11.60;84.20;;;;;;5014880;28;20807;-72
2024/03/21 06:40:04;;;;;;;74.53;38.57;;;11.50;85.10;;;;;;5013014;28;20417;-70
2024/03/21 06:42:31;;;;;;;76.70;38.55;;;11.60;85.50;;;;;;5012409;28;20407;-73
2024/03/21 06:45:01;;;;;;;75.47;39.17;;;11.60;85.50;;;;;;5012249;28;20389;-71
2024/03/21 06:47:26;;;;;;;75.07;37.35;;;11.60;84.80;;;;;;5012935;28;20428;-71
2024/03/21 06:49:58;;;;;;;72.57;39.10;;;11.60;84.00;;;;;;4994491;28;20875;-74
2024/03/21 06:52:24;;;;;;;73.57;40.57;;;11.60;84.60;;;;;;5012538;28;20433;-71
2024/03/21 06:54:50;;;;;;;75.60;40.33;;;11.70;83.70;;;;;;5012137;28;20439;-73
2024/03/21 06:57:16;;;;;;;79.63;38.58;;;11.70;82.60;;;;;;5012477;28;20752;-72
2024/03/21 06:59:41;;;;;;;81.90;42.13;;;11.60;82.80;;;;;;5012376;28;20396;-72
2024/03/21 07:02:08;;;;;;;83.43;41.42;;;11.60;83.50;;;;;;5012425;28;20397;-72
2024/03/21 07:04:34;;;;;;;85.32;45.97;;;11.60;82.30;;;;;;5012327;28;20385;-72
2024/03/21 07:07:00;;;;;;;76.28;42.28;;;11.70;81.90;;;;;;5012260;28;20459;-72
2024/03/21 07:09:25;;;;;;;77.43;39.13;;;11.80;79.50;;;;;;5011969;28;20384;-73
2024/03/21 07:11:51;;;;;;;68.60;38.00;;;11.80;78.20;;;;;;5012148;28;20376;-72
2024/03/21 07:14:17;;;;;;;74.63;40.67;;;11.70;77.70;;;;;;5012372;28;20384;-73
2024/03/21 07:16:43;;;;;;;68.67;38.10;;;11.70;76.90;;;;;;4994900;28;20393;-72
2024/03/21 07:19:09;;;;;;;69.80;41.33;;;11.70;75.70;;;;;;5011963;28;20404;-73
2024/03/21 07:21:34;;;;;;;70.60;40.05;;;11.70;75.60;;;;;;5012574;28;20397;-74
2024/03/21 07:24:00;;;;;;;64.10;32.38;;;11.80;75.20;;;;;;5012563;28;20384;-72
2024/03/21 07:26:25;;;;;;;63.50;36.95;;;11.80;72.00;;;;;;5012033;28;20460;-72
2024/03/21 07:28:51;;;;;;;58.88;34.40;;;11.90;71.80;;;;;;5012132;28;20424;-71
2024/03/21 07:31:16;;;;;;;59.80;33.57;;;11.90;69.30;;;;;;5011790;28;20389;-73
2024/03/21 07:33:43;;;;;;;48.27;27.33;;;12.10;69.10;;;;;;5011787;28;20757;-73
2024/03/21 07:36:09;;;;;;;46.53;25.17;;;12.10;63.90;;;;;;5011761;28;20392;-71
2024/03/21 07:38:34;;;;;;;42.73;25.87;;;12.10;62.40;;;;;;5011686;28;20419;-72
2024/03/21 07:41:01;;;;;;;36.00;22.63;;;12.10;61.70;;;;;;5011561;28;20480;-72
2024/03/21 07:43:27;;;;;;;49.47;28.30;;;12.10;61.10;;;;;;5011566;28;20388;-72
2024/03/21 07:45:53;;;;;;;46.45;25.88;;;12.00;61.20;;;;;;5011555;28;20954;-72
2024/03/21 07:48:19;;;;;;;54.53;32.10;;;12.10;60.00;;;;;;5011683;28;20396;-72
2024/03/21 07:50:44;;;;;;;49.95;26.88;;;12.00;60.00;;;;;;5011908;28;20800;-72
2024/03/21 07:53:10;;;;;;;40.08;23.33;;;12.00;60.30;;;;;;5011344;28;20395;-72
2024/03/21 07:55:36;;;;;;;37.33;21.83;;;12.00;59.70;;;;;;5011301;28;20395;-72
2024/03/21 07:58:02;;;;;;;37.10;23.48;;;11.90;59.10;;;;;;4994171;28;20400;-73
2024/03/21 08:00:28;;;;;;;38.58;23.10;;;12.00;60.30;;;;;;5011317;28;20929;-73
2024/03/21 08:02:57;;;;;;;40.70;23.38;;;12.00;59.20;;;;;;5011657;28;20405;-72
2024/03/21 08:05:23;;;;;;;41.35;22.70;;;11.90;59.60;;;;;;5011795;28;20389;-72
2024/03/21 08:07:48;;;;;;;35.33;20.37;;;11.90;59.10;;;;;;5012179;28;20396;-73
2024/03/21 08:10:15;;;;;;;34.67;20.30;;;11.90;59.30;;;;;;5011034;28;20500;-72
2024/03/21 08:12:41;;;;;;;33.97;18.38;;;12.00;58.10;;;;;;5011416;28;20891;-75
2024/03/21 08:15:07;;;;;;;33.95;18.35;;;12.20;56.30;;;;;;5011352;28;20872;-72
2024/03/21 08:17:33;;;;;;;30.83;18.45;;;12.20;55.30;;;;;;5011674;28;20396;-73
2024/03/21 08:20:00;;;;;;;29.07;15.23;;;12.20;56.30;;;;;;5011166;28;20451;-73
2024/03/21 08:22:26;;;;;;;31.10;17.90;;;12.20;55.10;;;;;;5014129;28;20399;-72
2024/03/21 08:24:51;;;;;;;31.95;19.20;;;12.30;56.20;;;;;;5025707;23;23011;-72
2024/03/21 08:27:19;;;;;;;28.77;16.88;;;12.40;56.60;;;;;;5011491;28;20393;-70
2024/03/21 08:29:46;;;;;;;28.00;17.25;;;12.60;53.80;;;;;;5011329;28;20452;-71
2024/03/21 08:32:12;;;;;;;23.50;13.82;;;12.70;53.10;;;;;;5011109;28;20385;-70
2024/03/21 08:34:37;;;;;;;25.53;15.50;;;12.50;53.00;;;;;;5011972;28;20732;-69
2024/03/21 08:37:03;;;;;;;24.40;13.80;;;12.30;54.00;;;;;;5012751;28;20388;-70
2024/03/21 08:39:29;;;;;;;19.80;11.93;;;12.10;54.20;;;;;;5011624;28;20805;-70
2024/03/21 08:41:54;;;;;;;22.30;12.07;;;11.90;53.90;;;;;;5011633;28;20385;-71
2024/03/21 08:44:20;;;;;;;20.38;11.98;;;12.00;54.10;;;;;;5012201;28;20420;-71
2024/03/21 08:46:45;;;;;;;22.30;13.80;;;12.00;53.90;;;;;;5013208;28;20427;-70
2024/03/21 08:49:13;;;;;;;24.73;14.20;;;11.90;54.40;;;;;;5012321;28;20377;-72
2024/03/21 08:51:39;;;;;;;18.40;11.50;;;12.20;54.10;;;;;;5011574;28;20393;-71
2024/03/21 08:54:05;;;;;;;17.30;10.05;;;12.20;51.30;;;;;;4993976;28;20428;-70
2024/03/21 08:56:31;;;;;;;14.40;8.50;;;12.20;51.20;;;;;;5011367;28;20393;-71
2024/03/21 08:58:57;;;;;;;17.65;11.35;;;12.10;50.10;;;;;;4995095;28;20935;-71
2024/03/21 09:01:22;;;;;;;23.27;12.02;;;12.00;51.00;;;;;;5012128;28;20472;-70
2024/03/21 09:03:48;;;;;;;25.05;14.73;;;12.10;52.00;;;;;;4994656;28;20744;-71
2024/03/21 09:06:14;;;;;;;21.77;13.75;;;12.00;54.10;;;;;;5010587;28;20413;-70
2024/03/21 09:08:40;;;;;;;21.75;12.25;;;12.00;54.10;;;;;;5011839;28;20447;-71
2024/03/21 09:11:06;;;;;;;21.45;12.93;;;12.30;50.80;;;;;;5011340;28;20397;-72
2024/03/21 09:13:32;;;;;;;22.08;13.70;;;12.30;47.80;;;;;;5011838;28;20740;-72
2024/03/21 09:15:58;;;;;;;23.25;14.73;;;12.60;47.90;;;;;;5011680;28;20389;-71
2024/03/21 09:18:23;;;;;;;27.05;14.30;;;12.90;46.20;;;;;;5011361;28;20579;-72
2024/03/21 09:20:51;;;;;;;19.87;10.53;;;13.00;44.10;;;;;;4993989;28;20396;-70
2024/03/21 09:23:16;;;;;;;17.83;10.60;;;12.70;44.10;;;;;;4995074;28;20475;-72
2024/03/21 09:25:42;;;;;;;15.02;10.60;;;12.80;45.50;;;;;;5014394;28;20393;-71
2024/03/21 09:28:07;;;;;;;14.07;9.30;;;12.80;44.30;;;;;;5014002;28;20403;-73
2024/03/21 09:30:33;;;;;;;18.10;10.97;;;12.70;44.10;;;;;;5013514;28;20479;-70
2024/03/21 09:32:59;;;;;;;17.37;12.50;;;12.80;43.90;;;;;;5014215;28;20392;-71
2024/03/21 09:35:24;;;;;;;18.90;13.27;;;12.70;44.30;;;;;;4997513;28;20401;-72
2024/03/21 09:37:50;;;;;;;20.67;12.93;;;12.90;44.20;;;;;;5014185;28;20397;-70
2024/03/21 09:40:17;;;;;;;20.27;13.87;;;12.60;45.00;;;;;;4996653;28;20494;-71
2024/03/21 09:42:43;;;;;;;20.17;12.93;;;12.60;46.30;;;;;;5014743;28;20389;-72
2024/03/21 09:45:17;;;;;;;16.23;10.65;;;12.70;46.30;;;;;;5013851;28;20403;-71
2024/03/21 09:47:45;;;;;;;15.00;10.43;;;12.70;45.00;;;;;;4997147;28;20432;-71
2024/03/21 09:50:12;;;;;;;14.80;9.98;;;12.90;44.30;;;;;;5014703;28;20757;-71
2024/03/21 09:52:38;;;;;;;14.73;8.33;;;12.90;43.90;;;;;;5015371;28;20389;-72
2024/03/21 09:55:14;;;;;;;14.45;8.30;;;12.90;43.00;;;;;;5014834;28;20392;-69
2024/03/21 09:57:44;;;;;;;12.07;8.35;;;13.10;42.50;;;;;;5014186;28;20401;-70
2024/03/21 10:00:12;;;;;;;13.00;9.93;;;13.20;41.00;;;;;;5015361;28;20389;-72
2024/03/21 10:02:38;;;;;;;19.55;11.85;;;13.10;41.20;;;;;;5014444;28;20446;-70
2024/03/21 10:05:06;;;;;;;15.15;10.32;;;13.10;40.20;;;;;;4997558;28;20388;-71
2024/03/21 10:07:35;;;;;;;14.23;10.27;;;12.90;40.40;;;;;;5014581;28;20388;-70
2024/03/21 10:10:00;;;;;;;11.75;8.95;;;12.90;40.70;;;;;;4997738;28;20443;-70
2024/03/21 10:12:26;;;;;;;13.73;10.05;;;13.10;41.00;;;;;;5014079;28;20388;-72
2024/03/21 10:14:55;;;;;;;15.00;10.30;;;13.30;39.20;;;;;;5016114;28;20477;-71
2024/03/21 10:17:21;;;;;;;9.50;7.43;;;13.30;39.40;;;;;;5013652;28;20393;-70
2024/03/21 10:19:47;;;;;;;10.60;7.80;;;13.00;39.70;;;;;;5013040;28;20393;-71
2024/03/21 10:22:21;;;;;;;11.60;9.25;;;13.20;38.10;;;;;;4995535;28;20400;-72
2024/03/21 10:24:54;;;;;;;18.35;12.38;;;13.30;38.00;;;;;;5013120;28;20385;-70
2024/03/21 10:27:21;;;;;;;15.15;11.15;;;13.50;37.90;;;;;;5013652;28;20496;-71
2024/03/21 10:29:47;;;;;;;14.18;9.43;;;13.40;37.50;;;;;;5012849;28;20890;-71
2024/03/21 10:32:20;;;;;;;10.87;7.90;;;13.40;37.90;;;;;;5012963;28;20578;-71
2024/03/21 10:34:48;;;;;;;13.45;7.20;;;13.50;37.60;;;;;;5012434;28;20399;-71
2024/03/21 10:37:19;;;;;;;9.43;7.10;;;13.40;37.60;;;;;;5012624;28;20385;-69
2024/03/21 10:39:46;;;;;;;12.20;7.13;;;13.40;38.40;;;;;;4995099;28;20828;-71
2024/03/21 10:42:31;;;;;;;10.07;6.80;;;13.10;39.20;;;;;;5012742;28;20381;-71
2024/03/21 10:45:03;;;;;;;12.38;7.65;;;13.00;39.70;;;;;;5013578;28;20415;-72
2024/03/21 10:47:29;;;;;;;12.70;8.25;;;13.30;39.60;;;;;;5014064;28;20431;-72
2024/03/21 10:49:55;;;;;;;14.30;7.47;;;13.40;38.00;;;;;;5013097;28;20428;-72
2024/03/21 10:52:21;;;;;;;12.32;7.55;;;13.40;37.90;;;;;;5012401;28;20392;-71
2024/03/21 10:54:51;;;;;;;10.88;7.20;;;13.30;39.00;;;;;;4995133;28;20423;-72
2024/03/21 10:57:19;;;;;;;9.48;7.13;;;13.30;38.60;;;;;;5012331;28;20464;-70
2024/03/21 11:00:02;;;;;;;11.60;7.80;;;13.10;38.50;;;;;;4994506;28;20411;-71
2024/03/21 11:02:28;;;;;;;10.48;7.32;;;13.20;39.50;;;;;;5012371;28;20432;-72
2024/03/21 11:04:55;;;;;;;10.95;7.10;;;13.10;39.00;;;;;;5012812;28;20435;-70
2024/03/21 11:07:22;;;;;;;10.20;7.05;;;13.20;38.70;;;;;;5013898;28;20396;-71
2024/03/21 11:09:49;;;;;;;10.67;7.33;;;13.10;39.10;;;;;;5011658;28;20459;-73
2024/03/21 11:12:15;;;;;;;10.95;7.50;;;13.30;38.50;;;;;;5014647;28;20389;-72
2024/03/21 11:14:45;;;;;;;13.07;6.57;;;13.60;37.90;;;;;;5013264;28;20460;-72
2024/03/21 11:17:13;;;;;;;11.23;6.93;;;13.20;37.50;;;;;;5012392;28;20460;-70
2024/03/21 11:19:39;;;;;;;9.80;6.70;;;13.10;38.30;;;;;;5012182;28;20392;-71
2024/03/21 11:22:10;;;;;;;10.70;7.28;;;13.20;38.20;;;;;;5012320;28;20909;-73
2024/03/21 11:24:35;;;;;;;10.10;7.10;;;13.30;38.40;;;;;;4994841;28;20447;-71
2024/03/21 11:27:01;;;;;;;11.30;7.50;;;13.50;37.60;;;;;;5013462;28;20392;-71
2024/03/21 11:29:27;;;;;;;9.50;6.60;;;13.50;37.70;;;;;;5011875;28;20397;-72
2024/03/21 11:31:52;;;;;;;12.33;7.30;;;13.20;37.90;;;;;;5010938;28;20388;-71
2024/03/21 11:34:18;;;;;;;9.63;6.80;;;13.10;38.70;;;;;;5011904;28;20401;-70
2024/03/21 11:36:43;;;;;;;10.03;7.17;;;13.30;37.90;;;;;;5011738;28;20400;-72
2024/03/21 11:39:14;;;;;;;7.57;6.20;;;13.30;37.60;;;;;;5012145;28;20411;-70
2024/03/21 11:41:39;;;;;;;12.90;7.67;;;13.30;37.20;;;;;;4994715;28;20462;-71
2024/03/21 11:44:11;;;;;;;11.10;7.03;;;13.60;36.60;;;;;;5012053;28;20471;-71
2024/03/21 11:46:38;;;;;;;9.70;6.85;;;13.60;36.10;;;;;;5010986;28;20384;-72
2024/03/21 11:49:14;;;;;;;10.52;6.70;;;13.60;36.20;;;;;;5011943;28;20403;-71
2024/03/21 11:51:40;;;;;;;12.10;7.10;;;13.70;35.80;;;;;;5011318;28;20519;-72
2024/03/21 11:54:09;;;;;;;8.38;6.82;;;13.70;36.50;;;;;;5011504;28;20995;-71
2024/03/21 11:56:37;;;;;;;8.82;6.75;;;14.20;35.90;;;;;;5011816;28;20400;-71
2024/03/21 11:59:04;;;;;;;10.70;7.00;;;14.60;33.10;;;;;;5011534;28;20799;-71
2024/03/21 12:01:30;;;;;;;7.90;6.60;;;14.40;33.50;;;;;;5011486;28;20436;-71
2024/03/21 12:03:55;;;;;;;12.65;7.45;;;14.30;34.20;;;;;;5011511;28;20400;-71
2024/03/21 12:06:21;;;;;;;9.80;6.50;;;14.60;33.40;;;;;;5011674;28;20377;-71
2024/03/21 12:08:49;;;;;;;8.95;6.88;;;14.10;33.40;;;;;;4993537;28;20400;-72
2024/03/21 12:11:17;;;;;;;9.90;7.20;;;13.70;35.50;;;;;;5011366;28;20393;-71
2024/03/21 12:13:43;;;;;;;10.23;7.03;;;13.60;35.80;;;;;;5011958;28;20400;-71
2024/03/21 12:16:16;;;;;;;11.00;7.00;;;13.40;36.70;;;;;;5011804;28;20393;-73
2024/03/21 12:18:43;;;;;;;9.88;6.97;;;13.30;37.30;;;;;;4994220;28;20415;-71
2024/03/21 12:21:15;;;;;;;11.65;6.32;;;13.50;36.80;;;;;;5011081;28;20427;-72
2024/03/21 12:23:41;;;;;;;10.77;6.47;;;13.60;36.20;;;;;;5012694;28;20759;-73
2024/03/21 12:26:08;;;;;;;13.30;6.97;;;13.50;36.90;;;;;;5010647;28;20397;-71
2024/03/21 12:28:35;;;;;;;12.48;7.18;;;13.60;36.70;;;;;;5011562;28;20389;-73
2024/03/21 12:31:01;;;;;;;11.20;7.15;;;13.40;37.20;;;;;;5010812;28;20393;-71
2024/03/21 12:33:26;;;;;;;10.32;7.00;;;13.30;37.00;;;;;;5011291;28;20396;-73